sensor_id;sensor_type;location;lat;lon;timestamp;P1;durP1;ratioP1;P2;durP2;ratioP2
28629;SDS011;15817;42.130;24.762;2023-04-09T00:00:25;7.05;;;5.70;;
28629;SDS011;15817;42.130;24.762;2023-04-09T00:02:54;9.52;;;6.40;;
28629;SDS011;15817;42.130;24.762;2023-04-09T00:05:23;8.43;;;5.75;;
28629;SDS011;15817;42.130;24.762;2023-04-09T00:08:01;9.52;;;6.32;;
28629;SDS011;15817;42.130;24.762;2023-04-09T00:10:27;8.45;;;5.97;;
28629;SDS011;15817;42.130;24.762;2023-04-09T00:13:13;8.77;;;6.30;;
28629;SDS011;15817;42.130;24.762;2023-04-09T00:15:49;8.60;;;5.97;;
28629;SDS011;15817;42.130;24.762;2023-04-09T00:18:18;7.30;;;5.53;;
28629;SDS011;15817;42.130;24.762;2023-04-09T00:20:46;7.38;;;5.85;;
28629;SDS011;15817;42.130;24.762;2023-04-09T00:25:48;8.73;;;6.13;;
28629;SDS011;15817;42.130;24.762;2023-04-09T00:28:40;8.73;;;6.43;;
28629;SDS011;15817;42.130;24.762;2023-04-09T00:31:20;8.43;;;6.53;;
28629;SDS011;15817;42.130;24.762;2023-04-09T00:33:46;8.95;;;6.78;;
28629;SDS011;15817;42.130;24.762;2023-04-09T00:36:15;8.60;;;6.57;;
28629;SDS011;15817;42.130;24.762;2023-04-09T00:38:41;6.88;;;6.03;;
28629;SDS011;15817;42.130;24.762;2023-04-09T00:41:18;7.72;;;5.85;;
28629;SDS011;15817;42.130;24.762;2023-04-09T00:43:51;8.10;;;6.28;;
28629;SDS011;15817;42.130;24.762;2023-04-09T00:46:37;7.43;;;6.63;;
28629;SDS011;15817;42.130;24.762;2023-04-09T00:49:09;7.78;;;6.63;;
28629;SDS011;15817;42.130;24.762;2023-04-09T00:51:44;10.40;;;6.85;;
28629;SDS011;15817;42.130;24.762;2023-04-09T00:54:18;7.75;;;6.05;;
28629;SDS011;15817;42.130;24.762;2023-04-09T00:56:51;8.05;;;6.75;;
28629;SDS011;15817;42.130;24.762;2023-04-09T00:59:21;9.45;;;7.15;;
28629;SDS011;15817;42.130;24.762;2023-04-09T01:01:51;9.55;;;7.47;;
28629;SDS011;15817;42.130;24.762;2023-04-09T01:04:17;11.05;;;7.97;;
28629;SDS011;15817;42.130;24.762;2023-04-09T01:06:48;8.02;;;7.07;;
28629;SDS011;15817;42.130;24.762;2023-04-09T01:09:32;9.35;;;7.82;;
28629;SDS011;15817;42.130;24.762;2023-04-09T01:12:17;9.68;;;7.88;;
28629;SDS011;15817;42.130;24.762;2023-04-09T01:20:17;9.45;;;8.43;;
28629;SDS011;15817;42.130;24.762;2023-04-09T01:26:02;11.35;;;8.82;;
28629;SDS011;15817;42.130;24.762;2023-04-09T01:28:48;9.73;;;8.10;;
28629;SDS011;15817;42.130;24.762;2023-04-09T01:31:24;10.25;;;8.45;;
28629;SDS011;15817;42.130;24.762;2023-04-09T01:33:56;10.93;;;8.98;;
28629;SDS011;15817;42.130;24.762;2023-04-09T01:36:26;11.07;;;8.60;;
28629;SDS011;15817;42.130;24.762;2023-04-09T01:38:57;10.75;;;8.48;;
28629;SDS011;15817;42.130;24.762;2023-04-09T01:41:28;10.32;;;8.27;;
28629;SDS011;15817;42.130;24.762;2023-04-09T01:43:56;10.90;;;9.45;;
28629;SDS011;15817;42.130;24.762;2023-04-09T01:46:26;10.27;;;8.68;;
28629;SDS011;15817;42.130;24.762;2023-04-09T01:48:54;10.35;;;9.10;;
28629;SDS011;15817;42.130;24.762;2023-04-09T01:51:21;10.13;;;8.85;;
28629;SDS011;15817;42.130;24.762;2023-04-09T01:53:47;10.70;;;9.13;;
28629;SDS011;15817;42.130;24.762;2023-04-09T01:56:20;11.20;;;8.73;;
28629;SDS011;15817;42.130;24.762;2023-04-09T01:58:51;11.55;;;8.80;;
28629;SDS011;15817;42.130;24.762;2023-04-09T02:01:26;10.88;;;9.20;;
28629;SDS011;15817;42.130;24.762;2023-04-09T02:04:04;10.07;;;8.70;;
28629;SDS011;15817;42.130;24.762;2023-04-09T02:06:39;10.32;;;8.50;;
28629;SDS011;15817;42.130;24.762;2023-04-09T02:09:28;10.02;;;8.50;;
28629;SDS011;15817;42.130;24.762;2023-04-09T02:11:57;10.05;;;8.10;;
28629;SDS011;15817;42.130;24.762;2023-04-09T02:14:27;10.35;;;8.45;;
28629;SDS011;15817;42.130;24.762;2023-04-09T02:16:58;11.90;;;8.88;;
28629;SDS011;15817;42.130;24.762;2023-04-09T02:19:36;12.57;;;8.38;;
28629;SDS011;15817;42.130;24.762;2023-04-09T02:22:09;11.43;;;8.98;;
28629;SDS011;15817;42.130;24.762;2023-04-09T02:24:36;10.82;;;8.70;;
28629;SDS011;15817;42.130;24.762;2023-04-09T02:27:04;9.48;;;8.45;;
28629;SDS011;15817;42.130;24.762;2023-04-09T02:29:33;9.98;;;8.23;;
28629;SDS011;15817;42.130;24.762;2023-04-09T02:31:59;9.85;;;8.32;;
28629;SDS011;15817;42.130;24.762;2023-04-09T02:34:26;9.95;;;8.52;;
28629;SDS011;15817;42.130;24.762;2023-04-09T02:36:55;11.75;;;9.32;;
28629;SDS011;15817;42.130;24.762;2023-04-09T02:39:23;10.43;;;8.65;;
28629;SDS011;15817;42.130;24.762;2023-04-09T02:41:54;12.15;;;9.77;;
28629;SDS011;15817;42.130;24.762;2023-04-09T02:44:25;11.95;;;9.40;;
28629;SDS011;15817;42.130;24.762;2023-04-09T02:46:55;10.65;;;8.77;;
28629;SDS011;15817;42.130;24.762;2023-04-09T02:49:21;13.23;;;9.68;;
28629;SDS011;15817;42.130;24.762;2023-04-09T02:51:47;12.48;;;9.98;;
28629;SDS011;15817;42.130;24.762;2023-04-09T02:54:13;12.40;;;10.68;;
28629;SDS011;15817;42.130;24.762;2023-04-09T02:56:39;14.25;;;10.98;;
28629;SDS011;15817;42.130;24.762;2023-04-09T02:59:05;15.48;;;12.20;;
28629;SDS011;15817;42.130;24.762;2023-04-09T03:01:31;14.20;;;11.20;;
28629;SDS011;15817;42.130;24.762;2023-04-09T03:03:59;13.82;;;11.85;;
28629;SDS011;15817;42.130;24.762;2023-04-09T03:06:25;18.42;;;11.68;;
28629;SDS011;15817;42.130;24.762;2023-04-09T03:08:51;16.40;;;12.07;;
28629;SDS011;15817;42.130;24.762;2023-04-09T03:11:28;16.05;;;12.43;;
28629;SDS011;15817;42.130;24.762;2023-04-09T03:13:54;15.60;;;12.00;;
28629;SDS011;15817;42.130;24.762;2023-04-09T03:16:22;17.20;;;12.75;;
28629;SDS011;15817;42.130;24.762;2023-04-09T03:18:51;15.75;;;12.48;;
28629;SDS011;15817;42.130;24.762;2023-04-09T03:21:29;14.55;;;12.27;;
28629;SDS011;15817;42.130;24.762;2023-04-09T03:23:56;17.75;;;13.15;;
28629;SDS011;15817;42.130;24.762;2023-04-09T03:26:22;19.13;;;14.15;;
28629;SDS011;15817;42.130;24.762;2023-04-09T03:28:48;17.13;;;13.50;;
28629;SDS011;15817;42.130;24.762;2023-04-09T03:31:15;18.15;;;14.07;;
28629;SDS011;15817;42.130;24.762;2023-04-09T03:33:42;18.48;;;14.40;;
28629;SDS011;15817;42.130;24.762;2023-04-09T03:36:09;17.88;;;14.32;;
28629;SDS011;15817;42.130;24.762;2023-04-09T03:38:52;20.00;;;14.23;;
28629;SDS011;15817;42.130;24.762;2023-04-09T03:41:28;24.35;;;16.58;;
28629;SDS011;15817;42.130;24.762;2023-04-09T03:43:56;23.30;;;16.50;;
28629;SDS011;15817;42.130;24.762;2023-04-09T03:46:26;24.67;;;16.05;;
28629;SDS011;15817;42.130;24.762;2023-04-09T03:48:54;21.92;;;15.65;;
28629;SDS011;15817;42.130;24.762;2023-04-09T03:51:24;22.30;;;15.82;;
28629;SDS011;15817;42.130;24.762;2023-04-09T03:53:56;20.50;;;15.00;;
28629;SDS011;15817;42.130;24.762;2023-04-09T03:56:22;22.52;;;14.82;;
28629;SDS011;15817;42.130;24.762;2023-04-09T03:58:51;20.25;;;14.88;;
28629;SDS011;15817;42.130;24.762;2023-04-09T04:01:35;22.63;;;15.35;;
28629;SDS011;15817;42.130;24.762;2023-04-09T04:04:06;21.48;;;15.45;;
28629;SDS011;15817;42.130;24.762;2023-04-09T04:06:42;20.85;;;15.38;;
28629;SDS011;15817;42.130;24.762;2023-04-09T04:09:29;19.88;;;15.10;;
28629;SDS011;15817;42.130;24.762;2023-04-09T04:12:03;20.38;;;15.07;;
28629;SDS011;15817;42.130;24.762;2023-04-09T04:14:50;24.65;;;15.60;;
28629;SDS011;15817;42.130;24.762;2023-04-09T04:17:25;18.77;;;14.50;;
28629;SDS011;15817;42.130;24.762;2023-04-09T04:19:53;20.42;;;15.25;;
28629;SDS011;15817;42.130;24.762;2023-04-09T04:22:25;23.70;;;16.25;;
28629;SDS011;15817;42.130;24.762;2023-04-09T04:24:53;23.88;;;15.70;;
28629;SDS011;15817;42.130;24.762;2023-04-09T04:27:21;25.33;;;16.73;;
28629;SDS011;15817;42.130;24.762;2023-04-09T04:29:47;24.63;;;15.60;;
28629;SDS011;15817;42.130;24.762;2023-04-09T04:32:42;21.65;;;15.18;;
28629;SDS011;15817;42.130;24.762;2023-04-09T04:35:10;20.67;;;14.55;;
28629;SDS011;15817;42.130;24.762;2023-04-09T04:37:37;23.90;;;15.02;;
28629;SDS011;15817;42.130;24.762;2023-04-09T04:40:05;22.98;;;14.32;;
28629;SDS011;15817;42.130;24.762;2023-04-09T04:42:37;20.45;;;15.02;;
28629;SDS011;15817;42.130;24.762;2023-04-09T04:45:09;20.50;;;14.27;;
28629;SDS011;15817;42.130;24.762;2023-04-09T04:47:43;22.55;;;15.88;;
28629;SDS011;15817;42.130;24.762;2023-04-09T04:50:09;23.00;;;15.35;;
28629;SDS011;15817;42.130;24.762;2023-04-09T04:52:49;20.75;;;14.40;;
28629;SDS011;15817;42.130;24.762;2023-04-09T06:04:03;30.08;;;17.15;;
28629;SDS011;15817;42.130;24.762;2023-04-09T06:06:31;27.73;;;17.38;;
28629;SDS011;15817;42.130;24.762;2023-04-09T06:08:58;31.15;;;18.40;;
28629;SDS011;15817;42.130;24.762;2023-04-09T06:11:39;30.45;;;18.60;;
28629;SDS011;15817;42.130;24.762;2023-04-09T06:14:08;31.88;;;19.02;;
28629;SDS011;15817;42.130;24.762;2023-04-09T06:16:43;32.83;;;18.27;;
28629;SDS011;15817;42.130;24.762;2023-04-09T06:19:15;29.45;;;16.45;;
28629;SDS011;15817;42.130;24.762;2023-04-09T06:22:04;27.88;;;15.75;;
28629;SDS011;15817;42.130;24.762;2023-04-09T06:24:42;25.85;;;16.35;;
28629;SDS011;15817;42.130;24.762;2023-04-09T06:27:36;26.38;;;14.52;;
28629;SDS011;15817;42.130;24.762;2023-04-09T06:30:15;21.80;;;14.30;;
28629;SDS011;15817;42.130;24.762;2023-04-09T06:32:44;24.90;;;14.73;;
28629;SDS011;15817;42.130;24.762;2023-04-09T06:35:14;21.83;;;13.48;;
28629;SDS011;15817;42.130;24.762;2023-04-09T06:37:43;20.45;;;12.85;;
28629;SDS011;15817;42.130;24.762;2023-04-09T06:40:11;18.70;;;11.88;;
28629;SDS011;15817;42.130;24.762;2023-04-09T06:42:47;20.35;;;11.43;;
28629;SDS011;15817;42.130;24.762;2023-04-09T06:45:20;15.48;;;10.15;;
28629;SDS011;15817;42.130;24.762;2023-04-09T06:47:46;18.67;;;11.32;;
28629;SDS011;15817;42.130;24.762;2023-04-09T06:50:23;15.80;;;11.20;;
28629;SDS011;15817;42.130;24.762;2023-04-09T06:52:54;15.88;;;11.38;;
28629;SDS011;15817;42.130;24.762;2023-04-09T06:55:33;18.77;;;11.23;;
28629;SDS011;15817;42.130;24.762;2023-04-09T06:58:05;16.17;;;10.63;;
28629;SDS011;15817;42.130;24.762;2023-04-09T07:00:33;14.23;;;10.13;;
28629;SDS011;15817;42.130;24.762;2023-04-09T07:03:02;12.88;;;9.48;;
28629;SDS011;15817;42.130;24.762;2023-04-09T07:05:42;12.38;;;9.45;;
28629;SDS011;15817;42.130;24.762;2023-04-09T07:08:23;12.00;;;8.70;;
28629;SDS011;15817;42.130;24.762;2023-04-09T07:10:53;10.05;;;8.48;;
28629;SDS011;15817;42.130;24.762;2023-04-09T07:13:23;9.50;;;8.23;;
28629;SDS011;15817;42.130;24.762;2023-04-09T07:15:52;11.57;;;9.18;;
28629;SDS011;15817;42.130;24.762;2023-04-09T07:18:23;10.73;;;8.82;;
28629;SDS011;15817;42.130;24.762;2023-04-09T07:21:22;12.63;;;8.80;;
28629;SDS011;15817;42.130;24.762;2023-04-09T07:24:18;10.52;;;8.05;;
28629;SDS011;15817;42.130;24.762;2023-04-09T07:27:24;10.23;;;8.25;;
28629;SDS011;15817;42.130;24.762;2023-04-09T07:29:57;9.25;;;7.70;;
28629;SDS011;15817;42.130;24.762;2023-04-09T07:32:31;9.60;;;8.25;;
28629;SDS011;15817;42.130;24.762;2023-04-09T07:35:09;11.00;;;8.20;;
28629;SDS011;15817;42.130;24.762;2023-04-09T07:37:44;11.52;;;7.60;;
28629;SDS011;15817;42.130;24.762;2023-04-09T07:40:10;9.80;;;8.27;;
28629;SDS011;15817;42.130;24.762;2023-04-09T07:42:39;9.52;;;7.47;;
28629;SDS011;15817;42.130;24.762;2023-04-09T07:45:10;8.82;;;6.57;;
28629;SDS011;15817;42.130;24.762;2023-04-09T07:48:08;8.18;;;6.97;;
28629;SDS011;15817;42.130;24.762;2023-04-09T07:50:37;8.05;;;6.97;;
28629;SDS011;15817;42.130;24.762;2023-04-09T07:53:03;9.18;;;6.78;;
28629;SDS011;15817;42.130;24.762;2023-04-09T07:55:28;8.75;;;6.70;;
28629;SDS011;15817;42.130;24.762;2023-04-09T07:57:54;7.57;;;6.65;;
28629;SDS011;15817;42.130;24.762;2023-04-09T08:00:28;10.40;;;6.85;;
28629;SDS011;15817;42.130;24.762;2023-04-09T08:03:01;6.80;;;6.03;;
28629;SDS011;15817;42.130;24.762;2023-04-09T08:05:28;8.90;;;6.68;;
28629;SDS011;15817;42.130;24.762;2023-04-09T08:07:55;8.02;;;5.93;;
28629;SDS011;15817;42.130;24.762;2023-04-09T08:10:28;8.07;;;6.40;;
28629;SDS011;15817;42.130;24.762;2023-04-09T08:12:59;6.63;;;5.40;;
28629;SDS011;15817;42.130;24.762;2023-04-09T08:15:25;7.28;;;5.75;;
28629;SDS011;15817;42.130;24.762;2023-04-09T08:17:51;6.43;;;5.57;;
28629;SDS011;15817;42.130;24.762;2023-04-09T08:20:17;5.93;;;5.32;;
28629;SDS011;15817;42.130;24.762;2023-04-09T08:22:43;6.22;;;5.63;;
28629;SDS011;15817;42.130;24.762;2023-04-09T08:25:12;8.52;;;5.97;;
28629;SDS011;15817;42.130;24.762;2023-04-09T08:27:46;6.80;;;5.15;;
28629;SDS011;15817;42.130;24.762;2023-04-09T08:30:17;7.40;;;5.30;;
28629;SDS011;15817;42.130;24.762;2023-04-09T08:32:46;6.43;;;5.82;;
28629;SDS011;15817;42.130;24.762;2023-04-09T08:35:15;7.75;;;4.60;;
28629;SDS011;15817;42.130;24.762;2023-04-09T08:37:40;6.05;;;4.40;;
28629;SDS011;15817;42.130;24.762;2023-04-09T08:40:09;6.68;;;4.88;;
28629;SDS011;15817;42.130;24.762;2023-04-09T08:42:38;5.40;;;4.90;;
28629;SDS011;15817;42.130;24.762;2023-04-09T08:45:12;6.35;;;5.57;;
28629;SDS011;15817;42.130;24.762;2023-04-09T08:47:48;6.28;;;5.65;;
28629;SDS011;15817;42.130;24.762;2023-04-09T08:50:17;6.28;;;5.25;;
28629;SDS011;15817;42.130;24.762;2023-04-09T08:52:45;6.07;;;5.47;;
28629;SDS011;15817;42.130;24.762;2023-04-09T08:55:19;7.38;;;6.00;;
28629;SDS011;15817;42.130;24.762;2023-04-09T08:57:48;7.18;;;5.25;;
28629;SDS011;15817;42.130;24.762;2023-04-09T09:00:20;6.45;;;5.80;;
28629;SDS011;15817;42.130;24.762;2023-04-09T09:05:37;8.60;;;5.60;;
28629;SDS011;15817;42.130;24.762;2023-04-09T09:08:05;6.60;;;5.88;;
28629;SDS011;15817;42.130;24.762;2023-04-09T09:10:35;7.43;;;6.07;;
28629;SDS011;15817;42.130;24.762;2023-04-09T09:13:15;6.00;;;5.40;;
28629;SDS011;15817;42.130;24.762;2023-04-09T09:16:23;7.68;;;4.95;;
28629;SDS011;15817;42.130;24.762;2023-04-09T09:18:57;7.03;;;5.45;;
28629;SDS011;15817;42.130;24.762;2023-04-09T09:21:53;9.55;;;5.95;;
28629;SDS011;15817;42.130;24.762;2023-04-09T09:24:31;7.53;;;5.10;;
28629;SDS011;15817;42.130;24.762;2023-04-09T09:27:07;7.05;;;6.00;;
28629;SDS011;15817;42.130;24.762;2023-04-09T09:29:34;6.07;;;5.40;;
28629;SDS011;15817;42.130;24.762;2023-04-09T09:32:11;9.15;;;5.32;;
28629;SDS011;15817;42.130;24.762;2023-04-09T09:35:01;7.13;;;5.60;;
28629;SDS011;15817;42.130;24.762;2023-04-09T09:37:28;6.20;;;5.45;;
28629;SDS011;15817;42.130;24.762;2023-04-09T09:39:55;6.20;;;5.55;;
28629;SDS011;15817;42.130;24.762;2023-04-09T09:43:05;5.38;;;4.72;;
28629;SDS011;15817;42.130;24.762;2023-04-09T09:45:31;5.97;;;5.20;;
28629;SDS011;15817;42.130;24.762;2023-04-09T09:48:04;6.63;;;5.43;;
28629;SDS011;15817;42.130;24.762;2023-04-09T09:50:33;6.78;;;5.80;;
28629;SDS011;15817;42.130;24.762;2023-04-09T09:53:08;6.75;;;5.22;;
28629;SDS011;15817;42.130;24.762;2023-04-09T09:55:39;6.15;;;5.43;;
28629;SDS011;15817;42.130;24.762;2023-04-09T09:58:10;6.32;;;5.55;;
28629;SDS011;15817;42.130;24.762;2023-04-09T10:00:52;6.07;;;5.45;;
28629;SDS011;15817;42.130;24.762;2023-04-09T10:03:23;6.20;;;5.60;;
28629;SDS011;15817;42.130;24.762;2023-04-09T10:05:51;6.35;;;5.55;;
28629;SDS011;15817;42.130;24.762;2023-04-09T10:08:21;6.72;;;5.70;;
28629;SDS011;15817;42.130;24.762;2023-04-09T10:10:48;8.55;;;5.55;;
28629;SDS011;15817;42.130;24.762;2023-04-09T10:13:29;5.55;;;5.00;;
28629;SDS011;15817;42.130;24.762;2023-04-09T10:16:08;6.10;;;5.50;;
28629;SDS011;15817;42.130;24.762;2023-04-09T10:18:37;6.97;;;5.25;;
28629;SDS011;15817;42.130;24.762;2023-04-09T10:21:23;5.88;;;5.20;;
28629;SDS011;15817;42.130;24.762;2023-04-09T10:24:00;4.32;;;3.72;;
28629;SDS011;15817;42.130;24.762;2023-04-09T10:26:33;3.88;;;3.55;;
28629;SDS011;15817;42.130;24.762;2023-04-09T10:29:04;4.85;;;4.38;;
28629;SDS011;15817;42.130;24.762;2023-04-09T10:31:46;7.20;;;5.53;;
28629;SDS011;15817;42.130;24.762;2023-04-09T10:34:22;6.82;;;6.15;;
28629;SDS011;15817;42.130;24.762;2023-04-09T10:36:52;6.97;;;6.28;;
28629;SDS011;15817;42.130;24.762;2023-04-09T10:39:27;6.10;;;5.50;;
28629;SDS011;15817;42.130;24.762;2023-04-09T10:41:59;6.20;;;5.55;;
28629;SDS011;15817;42.130;24.762;2023-04-09T10:44:28;12.20;;;7.43;;
28629;SDS011;15817;42.130;24.762;2023-04-09T10:47:00;6.13;;;5.35;;
28629;SDS011;15817;42.130;24.762;2023-04-09T10:49:30;5.10;;;4.60;;
28629;SDS011;15817;42.130;24.762;2023-04-09T10:52:09;4.93;;;3.80;;
28629;SDS011;15817;42.130;24.762;2023-04-09T10:54:40;4.45;;;4.05;;
28629;SDS011;15817;42.130;24.762;2023-04-09T10:57:13;4.82;;;3.78;;
28629;SDS011;15817;42.130;24.762;2023-04-09T10:59:45;4.07;;;3.60;;
28629;SDS011;15817;42.130;24.762;2023-04-09T11:07:57;2.80;;;2.47;;
28629;SDS011;15817;42.130;24.762;2023-04-09T11:10:39;3.28;;;2.45;;
28629;SDS011;15817;42.130;24.762;2023-04-09T11:13:06;3.08;;;2.15;;
28629;SDS011;15817;42.130;24.762;2023-04-09T11:15:37;2.42;;;2.20;;
28629;SDS011;15817;42.130;24.762;2023-04-09T11:18:04;4.15;;;2.65;;
28629;SDS011;15817;42.130;24.762;2023-04-09T11:20:38;4.30;;;2.47;;
28629;SDS011;15817;42.130;24.762;2023-04-09T11:23:05;3.15;;;2.47;;
28629;SDS011;15817;42.130;24.762;2023-04-09T11:25:36;3.40;;;2.38;;
28629;SDS011;15817;42.130;24.762;2023-04-09T11:28:02;3.97;;;2.40;;
28629;SDS011;15817;42.130;24.762;2023-04-09T11:30:32;2.72;;;2.15;;
28629;SDS011;15817;42.130;24.762;2023-04-09T11:32:59;3.33;;;3.03;;
28629;SDS011;15817;42.130;24.762;2023-04-09T11:35:28;2.90;;;2.67;;
28629;SDS011;15817;42.130;24.762;2023-04-09T11:37:54;2.85;;;2.50;;
28629;SDS011;15817;42.130;24.762;2023-04-09T11:40:25;5.95;;;3.03;;
28629;SDS011;15817;42.130;24.762;2023-04-09T11:42:53;2.90;;;2.65;;
28629;SDS011;15817;42.130;24.762;2023-04-09T11:45:26;3.17;;;2.88;;
28629;SDS011;15817;42.130;24.762;2023-04-09T11:47:53;3.40;;;3.10;;
28629;SDS011;15817;42.130;24.762;2023-04-09T11:50:20;3.13;;;2.85;;
28629;SDS011;15817;42.130;24.762;2023-04-09T11:52:49;3.88;;;3.03;;
28629;SDS011;15817;42.130;24.762;2023-04-09T11:55:33;3.90;;;3.00;;
28629;SDS011;15817;42.130;24.762;2023-04-09T11:57:59;4.07;;;3.17;;
28629;SDS011;15817;42.130;24.762;2023-04-09T12:00:39;4.18;;;2.83;;
28629;SDS011;15817;42.130;24.762;2023-04-09T12:03:05;3.95;;;2.85;;
28629;SDS011;15817;42.130;24.762;2023-04-09T12:05:31;3.30;;;3.00;;
28629;SDS011;15817;42.130;24.762;2023-04-09T12:08:05;3.88;;;3.30;;
28629;SDS011;15817;42.130;24.762;2023-04-09T12:10:35;3.50;;;3.05;;
28629;SDS011;15817;42.130;24.762;2023-04-09T12:13:06;3.03;;;2.75;;
28629;SDS011;15817;42.130;24.762;2023-04-09T12:15:36;6.95;;;3.45;;
28629;SDS011;15817;42.130;24.762;2023-04-09T12:18:06;3.13;;;2.83;;
28629;SDS011;15817;42.130;24.762;2023-04-09T12:20:36;3.70;;;3.00;;
28629;SDS011;15817;42.130;24.762;2023-04-09T12:23:12;3.05;;;2.83;;
28629;SDS011;15817;42.130;24.762;2023-04-09T12:25:39;3.20;;;2.90;;
28629;SDS011;15817;42.130;24.762;2023-04-09T12:28:06;3.90;;;3.08;;
28629;SDS011;15817;42.130;24.762;2023-04-09T12:30:37;3.90;;;3.42;;
28629;SDS011;15817;42.130;24.762;2023-04-09T12:33:03;3.42;;;3.13;;
28629;SDS011;15817;42.130;24.762;2023-04-09T12:35:30;8.20;;;3.30;;
28629;SDS011;15817;42.130;24.762;2023-04-09T12:38:08;3.88;;;3.40;;
28629;SDS011;15817;42.130;24.762;2023-04-09T12:40:40;3.60;;;3.30;;
28629;SDS011;15817;42.130;24.762;2023-04-09T12:43:07;3.63;;;2.95;;
28629;SDS011;15817;42.130;24.762;2023-04-09T12:45:38;3.85;;;3.47;;
28629;SDS011;15817;42.130;24.762;2023-04-09T12:48:11;5.55;;;3.08;;
28629;SDS011;15817;42.130;24.762;2023-04-09T12:50:40;3.75;;;3.40;;
28629;SDS011;15817;42.130;24.762;2023-04-09T12:53:05;3.58;;;3.22;;
28629;SDS011;15817;42.130;24.762;2023-04-09T12:55:34;3.45;;;3.15;;
28629;SDS011;15817;42.130;24.762;2023-04-09T12:58:05;3.50;;;3.20;;
28629;SDS011;15817;42.130;24.762;2023-04-09T13:00:34;3.78;;;3.42;;
28629;SDS011;15817;42.130;24.762;2023-04-09T13:03:02;7.13;;;3.63;;
28629;SDS011;15817;42.130;24.762;2023-04-09T13:05:30;4.30;;;3.35;;
28629;SDS011;15817;42.130;24.762;2023-04-09T13:08:07;3.40;;;2.83;;
28629;SDS011;15817;42.130;24.762;2023-04-09T13:10:38;5.28;;;3.38;;
28629;SDS011;15817;42.130;24.762;2023-04-09T13:13:06;3.22;;;2.85;;
28629;SDS011;15817;42.130;24.762;2023-04-09T13:15:36;3.55;;;3.10;;
28629;SDS011;15817;42.130;24.762;2023-04-09T13:18:06;3.85;;;3.28;;
28629;SDS011;15817;42.130;24.762;2023-04-09T13:20:34;4.10;;;3.20;;
28629;SDS011;15817;42.130;24.762;2023-04-09T13:23:06;4.70;;;3.40;;
28629;SDS011;15817;42.130;24.762;2023-04-09T13:25:35;3.08;;;2.78;;
28629;SDS011;15817;42.130;24.762;2023-04-09T13:28:01;3.75;;;3.33;;
28629;SDS011;15817;42.130;24.762;2023-04-09T13:30:26;3.60;;;2.53;;
28629;SDS011;15817;42.130;24.762;2023-04-09T13:32:53;3.22;;;2.92;;
28629;SDS011;15817;42.130;24.762;2023-04-09T13:35:18;3.25;;;2.95;;
28629;SDS011;15817;42.130;24.762;2023-04-09T13:37:44;3.35;;;3.05;;
28629;SDS011;15817;42.130;24.762;2023-04-09T13:40:10;3.17;;;2.97;;
28629;SDS011;15817;42.130;24.762;2023-04-09T13:42:36;3.20;;;2.90;;
28629;SDS011;15817;42.130;24.762;2023-04-09T13:45:03;4.95;;;3.40;;
28629;SDS011;15817;42.130;24.762;2023-04-09T13:47:29;4.07;;;3.28;;
28629;SDS011;15817;42.130;24.762;2023-04-09T13:49:55;3.38;;;3.08;;
28629;SDS011;15817;42.130;24.762;2023-04-09T13:52:27;3.28;;;2.97;;
28629;SDS011;15817;42.130;24.762;2023-04-09T13:54:53;4.00;;;3.40;;
28629;SDS011;15817;42.130;24.762;2023-04-09T13:57:21;3.88;;;3.45;;
28629;SDS011;15817;42.130;24.762;2023-04-09T13:59:47;3.50;;;3.20;;
28629;SDS011;15817;42.130;24.762;2023-04-09T14:02:15;3.17;;;2.88;;
28629;SDS011;15817;42.130;24.762;2023-04-09T14:04:44;3.78;;;3.47;;
28629;SDS011;15817;42.130;24.762;2023-04-09T14:07:13;3.42;;;3.13;;
28629;SDS011;15817;42.130;24.762;2023-04-09T14:09:39;4.03;;;3.38;;
28629;SDS011;15817;42.130;24.762;2023-04-09T14:12:07;3.42;;;3.13;;
28629;SDS011;15817;42.130;24.762;2023-04-09T14:14:42;7.45;;;4.07;;
28629;SDS011;15817;42.130;24.762;2023-04-09T14:20:20;3.97;;;3.53;;
28629;SDS011;15817;42.130;24.762;2023-04-09T14:22:51;4.53;;;3.55;;
28629;SDS011;15817;42.130;24.762;2023-04-09T14:25:16;3.30;;;3.00;;
28629;SDS011;15817;42.130;24.762;2023-04-09T14:27:45;5.28;;;3.33;;
28629;SDS011;15817;42.130;24.762;2023-04-09T14:30:14;3.55;;;3.13;;
28629;SDS011;15817;42.130;24.762;2023-04-09T14:32:44;3.67;;;3.38;;
28629;SDS011;15817;42.130;24.762;2023-04-09T14:35:10;3.30;;;3.00;;
28629;SDS011;15817;42.130;24.762;2023-04-09T14:37:41;3.33;;;2.83;;
28629;SDS011;15817;42.130;24.762;2023-04-09T14:40:16;4.03;;;3.08;;
28629;SDS011;15817;42.130;24.762;2023-04-09T14:42:42;3.30;;;3.00;;
28629;SDS011;15817;42.130;24.762;2023-04-09T14:45:14;3.92;;;3.50;;
28629;SDS011;15817;42.130;24.762;2023-04-09T14:47:40;4.32;;;2.80;;
28629;SDS011;15817;42.130;24.762;2023-04-09T14:50:09;3.22;;;2.90;;
28629;SDS011;15817;42.130;24.762;2023-04-09T14:52:37;3.28;;;2.97;;
28629;SDS011;15817;42.130;24.762;2023-04-09T14:55:05;5.85;;;3.90;;
28629;SDS011;15817;42.130;24.762;2023-04-09T14:57:37;3.55;;;3.22;;
28629;SDS011;15817;42.130;24.762;2023-04-09T15:00:10;3.30;;;3.00;;
28629;SDS011;15817;42.130;24.762;2023-04-09T15:02:36;4.25;;;3.80;;
28629;SDS011;15817;42.130;24.762;2023-04-09T15:05:03;4.10;;;3.67;;
28629;SDS011;15817;42.130;24.762;2023-04-09T15:07:35;3.85;;;3.20;;
28629;SDS011;15817;42.130;24.762;2023-04-09T15:10:04;3.20;;;2.90;;
28629;SDS011;15817;42.130;24.762;2023-04-09T15:12:44;3.30;;;3.00;;
28629;SDS011;15817;42.130;24.762;2023-04-09T15:15:30;3.58;;;3.20;;
28629;SDS011;15817;42.130;24.762;2023-04-09T15:18:07;4.82;;;3.97;;
28629;SDS011;15817;42.130;24.762;2023-04-09T15:20:43;4.05;;;3.50;;
28629;SDS011;15817;42.130;24.762;2023-04-09T15:23:09;5.78;;;3.35;;
28629;SDS011;15817;42.130;24.762;2023-04-09T15:25:40;5.50;;;3.70;;
28629;SDS011;15817;42.130;24.762;2023-04-09T15:28:10;3.75;;;3.35;;
28629;SDS011;15817;42.130;24.762;2023-04-09T15:30:36;3.58;;;3.28;;
28629;SDS011;15817;42.130;24.762;2023-04-09T15:33:03;5.53;;;3.63;;
28629;SDS011;15817;42.130;24.762;2023-04-09T15:35:31;3.60;;;3.30;;
28629;SDS011;15817;42.130;24.762;2023-04-09T15:38:06;3.65;;;3.30;;
28629;SDS011;15817;42.130;24.762;2023-04-09T15:40:35;3.90;;;3.40;;
28629;SDS011;15817;42.130;24.762;2023-04-09T15:43:04;4.72;;;3.45;;
28629;SDS011;15817;42.130;24.762;2023-04-09T15:45:35;3.95;;;3.30;;
28629;SDS011;15817;42.130;24.762;2023-04-09T15:48:32;4.07;;;3.67;;
28629;SDS011;15817;42.130;24.762;2023-04-09T15:51:44;4.03;;;3.65;;
28629;SDS011;15817;42.130;24.762;2023-04-09T15:54:52;4.25;;;3.33;;
28629;SDS011;15817;42.130;24.762;2023-04-09T15:58:00;3.35;;;2.95;;
28629;SDS011;15817;42.130;24.762;2023-04-09T16:00:49;3.10;;;2.90;;
28629;SDS011;15817;42.130;24.762;2023-04-09T16:03:52;3.70;;;3.40;;
28629;SDS011;15817;42.130;24.762;2023-04-09T16:09:35;3.38;;;3.08;;
28629;SDS011;15817;42.130;24.762;2023-04-09T16:12:11;5.68;;;3.25;;
28629;SDS011;15817;42.130;24.762;2023-04-09T16:14:57;3.70;;;3.38;;
28629;SDS011;15817;42.130;24.762;2023-04-09T16:17:58;5.63;;;3.85;;
28629;SDS011;15817;42.130;24.762;2023-04-09T16:21:05;4.47;;;4.07;;
28629;SDS011;15817;42.130;24.762;2023-04-09T16:24:03;5.00;;;4.22;;
28629;SDS011;15817;42.130;24.762;2023-04-09T16:26:43;5.97;;;5.15;;
28629;SDS011;15817;42.130;24.762;2023-04-09T16:29:19;4.43;;;4.03;;
28629;SDS011;15817;42.130;24.762;2023-04-09T16:32:06;8.05;;;5.30;;
28629;SDS011;15817;42.130;24.762;2023-04-09T16:34:41;7.18;;;5.20;;